Terminal Aerodrome Forecast
Issued by NWS Brownsville, TX

Home | Current Version | Previous Version | Text Only | Print | Product List | Glossary On
Versions: 1 2 3 4 5 6 7 8 9 10 11 12 13 14 15 16
707
FTUS44 KBRO 251129
TAFHRL
TAF
KHRL 251129Z 2512/2612 15009KT P6SM BKN025
     FM251500 18020G27KT P6SM BKN040
     FM260100 16015G21KT P6SM SCT040=

USA.gov is the U.S. government's official web portal to all federal, state and local government web resources and services.